Plymouth, UT (84330)

7:14 AM MST on February 10, 2016 (GMT -0700)
portage east | | Change Station
CLOSE
Current Station
Personal Weather Station
Location: Portage, UT
Elevation: 4498 ft
Nearby Weather Stations

Elev 4498 ft 41.98 °N, 112.24 °W | Updated 15 seconds ago

Mostly Cloudy
Mostly Cloudy
5.5 °F
Feels Like 6 °F
N
0.0
Wind Variable Wind from North
Gusts 0.0 mph

Today
High -- | Low -- °F
--% Chance of Precip.
Yesterday
High -- | Low -- °F
Precip. -- in
Pressure 30.67 in
Visibility 0.2 miles
Clouds
Windchill 6 °F
Dew Point -4 °F
Humidity 63%
Rainfall 0.00 in
Snow Depth Not available.
7:31 AM 5:54 PM
Waxing Crescent, 5% visible
METAR KLGU 101351Z AUTO 00000KT 1/4SM FZFG VV002 M14/M16 A3048 RMK AO2 SLP385 T11441156
Pressure 30.67 in
Visibility 0.2 miles
Clouds
Windchill 6 °F
Dew Point -4 °F
Humidity 63%
Rainfall 0.00 in
Snow Depth Not available.
7:31 AM 5:54 PM
Waxing Crescent, 5% visible
METAR KLGU 101351Z AUTO 00000KT 1/4SM FZFG VV002 M14/M16 A3048 RMK AO2 SLP385 T11441156

10-Day Weather Forecast

Almanac

Astronomy

Feb. 10, 2016 Rise Set
Actual Time
Civil Twilight
Nautical Twilight
Astronomical Twilight
Moon
Length of Visible Light
Length of Day
Tomorrow will be .
, % of the Moon is Illuminated

Today's Extremes

State Highs State Lows

Community

WunderPhotos

Upload Photos

1,891,850 photos uploaded!

WunderBlog® & News

Nearby

Air Quality

  Air Quality AQ Index Pollutant
Not available.

Snow Depth

Station Depth Elevation

Earthquake Activity

City Distance Mag. Time & Date
Minimum magnitude displayed is 2.5.

Coastal Water Temperatures

Place Temperature

Stations

Nearby Weather Stations

Station Location Temp. Windchill Dew Point Humidity Wind Precip. Elev Updated Type
                   

Watches & Warnings

There are currently no watches in effect.